createdAt,value
2023-04-11T00:01:51.019Z,9.67
2023-04-11T00:04:21.241Z,9.66
2023-04-11T00:06:50.361Z,9.64
2023-04-11T00:09:20.869Z,9.62
2023-04-11T00:11:49.708Z,9.58
2023-04-11T00:14:18.647Z,9.54
2023-04-11T00:16:49.959Z,9.51
2023-04-11T00:19:21.170Z,9.48
2023-04-11T00:21:50.826Z,9.43
2023-04-11T00:24:19.667Z,9.38
2023-04-11T00:26:48.772Z,9.36
2023-04-11T00:29:19.494Z,9.35
2023-04-11T00:31:52.944Z,9.36
2023-04-11T00:34:22.562Z,9.36
2023-04-11T00:36:51.918Z,9.34
2023-04-11T00:39:22.766Z,9.31
2023-04-11T00:41:51.937Z,9.29
2023-04-11T00:44:22.472Z,9.27
2023-04-11T00:46:51.299Z,9.26
2023-04-11T00:49:20.481Z,9.26
2023-04-11T00:51:50.069Z,9.27
2023-04-11T00:54:20.070Z,9.26
2023-04-11T00:56:51.036Z,9.26
2023-04-11T00:59:20.592Z,9.26
2023-04-11T01:01:51.344Z,9.25
2023-04-11T01:04:22.700Z,9.23
2023-04-11T01:06:56.537Z,9.18
2023-04-11T01:09:27.381Z,9.17
2023-04-11T01:11:58.109Z,9.15
2023-04-11T01:14:27.210Z,9.12
2023-04-11T01:16:56.913Z,9.12
2023-04-11T01:19:27.890Z,9.10
2023-04-11T01:21:58.410Z,9.07
2023-04-11T01:24:27.911Z,9.06
2023-04-11T01:26:59.402Z,9.03
2023-04-11T01:29:28.655Z,9.01
2023-04-11T01:31:58.158Z,8.98
2023-04-11T01:34:28.364Z,8.95
2023-04-11T01:36:57.268Z,8.92
2023-04-11T01:39:26.376Z,8.90
2023-04-11T01:41:57.072Z,8.88
2023-04-11T01:44:27.038Z,8.88
2023-04-11T01:46:58.014Z,8.87
2023-04-11T01:49:27.081Z,8.84
2023-04-11T01:52:15.066Z,8.81
2023-04-11T01:54:46.038Z,8.79
2023-04-11T01:57:16.457Z,8.77
2023-04-11T01:59:46.803Z,8.74
2023-04-11T02:02:17.536Z,8.73
2023-04-11T02:04:47.035Z,8.72
2023-04-11T02:07:16.636Z,8.71
2023-04-11T02:09:46.452Z,8.71
2023-04-11T02:12:16.164Z,8.69
2023-04-11T02:14:46.844Z,8.67
2023-04-11T02:17:18.332Z,8.65
2023-04-11T02:19:48.788Z,8.60
2023-04-11T02:22:17.919Z,8.53
2023-04-11T02:24:50.871Z,8.49
2023-04-11T02:27:20.087Z,8.48
2023-04-11T02:29:50.413Z,8.47
2023-04-11T02:32:19.130Z,8.44
2023-04-11T02:34:47.873Z,8.41
2023-04-11T02:37:19.767Z,8.39
2023-04-11T02:39:48.689Z,8.37
2023-04-11T02:42:20.948Z,8.35
2023-04-11T02:44:56.073Z,8.32
2023-04-11T02:47:27.023Z,8.31
2023-04-11T02:49:59.546Z,8.31
2023-04-11T02:52:32.975Z,8.28
2023-04-11T02:55:02.489Z,8.27
2023-04-11T02:57:33.303Z,8.26
2023-04-11T03:00:02.614Z,8.27
2023-04-11T03:02:35.091Z,8.27
2023-04-11T03:05:09.255Z,8.28
2023-04-11T03:07:40.366Z,8.27
2023-04-11T03:10:13.012Z,8.25
2023-04-11T03:12:42.248Z,8.25
2023-04-11T03:15:13.487Z,8.23
2023-04-11T03:17:44.000Z,8.21
2023-04-11T03:20:17.298Z,8.22
2023-04-11T03:22:47.311Z,8.22
2023-04-11T03:25:19.312Z,8.21
2023-04-11T03:27:49.519Z,8.20
2023-04-11T03:30:22.288Z,8.19
2023-04-11T03:32:53.244Z,8.19
2023-04-11T03:35:22.999Z,8.15
2023-04-11T03:37:53.973Z,8.15
2023-04-11T03:40:23.167Z,8.13
2023-04-11T03:42:56.281Z,8.09
2023-04-11T03:45:27.400Z,8.06
2023-04-11T03:47:57.496Z,8.06
2023-04-11T03:50:28.161Z,8.07
2023-04-11T03:52:59.361Z,8.08
2023-04-11T03:55:30.549Z,8.07
2023-04-11T03:58:00.260Z,8.05
2023-04-11T04:00:29.893Z,8.01
2023-04-11T04:03:02.635Z,8.01
2023-04-11T04:05:32.258Z,8.02
2023-04-11T04:08:03.686Z,8.08
2023-04-11T04:10:46.889Z,8.15
2023-04-11T04:13:16.305Z,8.21
2023-04-11T04:15:55.096Z,8.24
2023-04-11T04:18:26.934Z,8.25
2023-04-11T04:20:56.209Z,8.28
2023-04-11T04:23:28.502Z,8.31
2023-04-11T04:26:07.040Z,8.33
2023-04-11T04:28:40.755Z,8.35
2023-04-11T04:31:10.483Z,8.37
2023-04-11T04:33:42.930Z,8.40
2023-04-11T04:36:17.149Z,8.42
2023-04-11T04:38:48.588Z,8.46
2023-04-11T04:41:20.243Z,8.47
2023-04-11T04:43:54.999Z,8.50
2023-04-11T04:46:28.898Z,8.55
2023-04-11T04:48:59.548Z,8.66
2023-04-11T04:51:29.975Z,8.77
2023-04-11T04:54:02.628Z,8.92
2023-04-11T04:56:32.166Z,9.08
2023-04-11T04:59:01.648Z,9.24
2023-04-11T05:01:32.602Z,9.34
2023-04-11T05:04:02.919Z,9.40
2023-04-11T05:06:41.019Z,9.44
2023-04-11T05:09:11.641Z,9.47
2023-04-11T05:11:41.938Z,9.48
2023-04-11T05:14:12.036Z,9.47
2023-04-11T05:16:43.572Z,9.45
2023-04-11T05:19:13.040Z,9.46
2023-04-11T05:21:44.935Z,9.44
2023-04-11T05:24:16.570Z,9.43
2023-04-11T05:26:47.653Z,9.44
2023-04-11T05:29:18.750Z,9.44
2023-04-11T05:31:49.336Z,9.45
2023-04-11T05:34:18.900Z,9.47
2023-04-11T05:36:51.767Z,9.51
2023-04-11T05:39:21.916Z,9.54
2023-04-11T05:41:53.083Z,9.58
2023-04-11T05:44:23.952Z,9.63
2023-04-11T05:46:56.595Z,9.66
2023-04-11T05:49:25.452Z,9.69
2023-04-11T05:51:55.686Z,9.75
2023-04-11T05:54:37.106Z,9.80
2023-04-11T05:57:07.802Z,9.84
2023-04-11T05:59:37.815Z,9.88
2023-04-11T06:02:07.102Z,9.92
2023-04-11T06:04:36.367Z,9.98
2023-04-11T06:07:07.976Z,10.01
2023-04-11T06:09:37.389Z,10.06
2023-04-11T06:12:07.334Z,10.10
2023-04-11T06:14:37.517Z,10.15
2023-04-11T06:17:07.001Z,10.20
2023-04-11T06:19:37.453Z,10.25
2023-04-11T06:22:07.677Z,10.31
2023-04-11T06:24:40.452Z,10.35
2023-04-11T06:27:10.942Z,10.42
2023-04-11T06:29:43.451Z,10.48
2023-04-11T06:32:12.804Z,10.53
2023-04-11T06:34:45.169Z,10.60
2023-04-11T06:37:14.993Z,10.67
2023-04-11T06:39:43.961Z,10.73
2023-04-11T06:42:13.003Z,10.80
2023-04-11T06:44:46.113Z,10.87
2023-04-11T06:47:16.687Z,10.94
2023-04-11T06:49:46.317Z,11.02
2023-04-11T06:52:16.320Z,11.11
2023-04-11T06:54:45.538Z,11.21
2023-04-11T06:57:14.783Z,11.29
2023-04-11T06:59:45.133Z,11.38
2023-04-11T07:02:15.733Z,11.48
2023-04-11T07:04:45.794Z,11.61
2023-04-11T07:07:16.715Z,11.81
2023-04-11T07:09:47.444Z,12.15
2023-04-11T07:12:16.650Z,12.46
2023-04-11T07:14:47.117Z,12.73
2023-04-11T07:17:17.417Z,12.91
2023-04-11T07:19:46.301Z,13.04
2023-04-11T07:22:16.097Z,13.08
2023-04-11T07:24:46.812Z,13.11
2023-04-11T07:27:17.608Z,13.12
2023-04-11T07:29:47.838Z,13.16
2023-04-11T07:32:16.832Z,13.17
2023-04-11T07:34:45.709Z,13.20
2023-04-11T07:37:14.688Z,13.25
2023-04-11T07:39:44.812Z,13.38
2023-04-11T07:42:14.849Z,13.53
2023-04-11T07:44:43.433Z,13.85
2023-04-11T07:47:14.036Z,14.20
2023-04-11T07:49:43.138Z,14.53
2023-04-11T07:52:14.577Z,14.82
2023-04-11T07:54:44.766Z,15.11
2023-04-11T07:57:22.598Z,15.40
2023-04-11T07:59:56.814Z,15.68
2023-04-11T08:02:25.663Z,15.91
2023-04-11T08:04:54.622Z,16.09
2023-04-11T08:07:25.973Z,16.25
2023-04-11T08:09:55.607Z,16.39
2023-04-11T08:12:25.253Z,16.53
2023-04-11T08:14:55.566Z,16.70
2023-04-11T08:17:28.943Z,16.80
2023-04-11T08:19:58.032Z,16.90
2023-04-11T08:22:27.703Z,16.97
2023-04-11T08:24:57.556Z,16.88
2023-04-11T08:27:26.869Z,16.72
2023-04-11T08:29:58.848Z,16.45
2023-04-11T08:32:28.165Z,16.17
2023-04-11T08:34:57.870Z,16.00
2023-04-11T08:37:28.232Z,15.88
2023-04-11T08:39:58.289Z,15.80
2023-04-11T08:42:29.397Z,15.70
2023-04-11T08:45:04.788Z,15.58
2023-04-11T08:47:34.754Z,15.53
2023-04-11T08:50:05.630Z,15.45
2023-04-11T08:52:35.214Z,15.40
2023-04-11T08:55:04.394Z,15.44
2023-04-11T08:57:33.510Z,15.47
2023-04-11T09:00:09.374Z,15.46
2023-04-11T09:03:00.863Z,15.50
2023-04-11T09:05:38.332Z,15.55
2023-04-11T09:08:13.473Z,15.61
2023-04-11T09:10:47.964Z,15.57
2023-04-11T09:13:22.221Z,15.43
2023-04-11T09:16:08.839Z,15.33
2023-04-11T09:18:39.792Z,15.23
2023-04-11T09:21:13.119Z,15.16
2023-04-11T09:23:44.245Z,15.09
2023-04-11T09:26:15.754Z,15.07
2023-04-11T09:28:48.770Z,15.06
2023-04-11T09:31:18.584Z,15.09
2023-04-11T09:33:54.670Z,15.18
2023-04-11T09:36:24.945Z,15.28
2023-04-11T09:38:54.810Z,15.37
2023-04-11T09:41:34.453Z,15.47
2023-04-11T09:44:03.483Z,15.57
2023-04-11T09:46:33.709Z,15.62
2023-04-11T09:49:03.351Z,15.68
2023-04-11T09:51:37.041Z,15.71
2023-04-11T09:54:06.246Z,15.71
2023-04-11T09:56:35.917Z,15.76
2023-04-11T09:59:06.629Z,15.82
2023-04-11T10:01:35.887Z,15.87
2023-04-11T10:04:05.006Z,15.83
2023-04-11T10:06:44.763Z,15.82
2023-04-11T10:09:14.221Z,15.86
2023-04-11T10:11:44.495Z,15.87
2023-04-11T10:14:41.525Z,15.82
2023-04-11T10:17:22.821Z,15.77
2023-04-11T10:19:58.981Z,15.70
2023-04-11T10:22:59.473Z,15.65
2023-04-11T10:25:30.456Z,15.63
2023-04-11T10:28:01.428Z,15.62
2023-04-11T10:30:46.801Z,15.63
2023-04-11T10:33:17.717Z,15.60
2023-04-11T10:36:03.289Z,15.55
2023-04-11T10:38:45.799Z,15.57
2023-04-11T10:41:26.305Z,15.58
2023-04-11T10:44:18.176Z,15.57
2023-04-11T10:46:53.784Z,15.54
2023-04-11T10:49:38.560Z,15.52
2023-04-11T10:52:24.135Z,15.55
2023-04-11T10:54:53.942Z,15.55
2023-04-11T10:57:25.102Z,15.55
2023-04-11T10:59:58.486Z,15.57
2023-04-11T11:02:31.376Z,15.57
2023-04-11T11:05:00.724Z,15.58
2023-04-11T11:07:30.483Z,15.57
2023-04-11T11:10:04.442Z,15.59
2023-04-11T11:12:35.436Z,15.64
2023-04-11T11:15:15.189Z,15.65
2023-04-11T11:17:45.750Z,15.69
2023-04-11T11:20:21.505Z,15.72
2023-04-11T11:23:03.498Z,15.73
2023-04-11T11:25:33.767Z,15.74
2023-04-11T11:28:07.715Z,15.75
2023-04-11T11:30:38.061Z,15.74
2023-04-11T11:33:19.572Z,15.75
2023-04-11T11:36:00.471Z,15.77
2023-04-11T11:38:31.125Z,15.77
2023-04-11T11:41:00.836Z,15.79
2023-04-11T11:43:30.471Z,15.80
2023-04-11T11:46:13.785Z,15.79
2023-04-11T11:48:43.618Z,15.78
2023-04-11T11:51:12.511Z,15.73
2023-04-11T11:53:43.124Z,15.68
2023-04-11T11:56:14.226Z,15.66
2023-04-11T11:58:44.908Z,15.62
2023-04-11T12:01:15.583Z,15.59
2023-04-11T12:03:45.556Z,15.55
2023-04-11T12:06:16.493Z,15.54
2023-04-11T12:08:47.587Z,15.53
2023-04-11T12:11:19.258Z,15.50
2023-04-11T12:13:52.247Z,15.51
2023-04-11T12:16:23.634Z,15.51
2023-04-11T12:18:53.992Z,15.51
2023-04-11T12:21:22.697Z,15.54
2023-04-11T12:23:52.050Z,15.55
2023-04-11T12:26:22.507Z,15.56
2023-04-11T12:28:52.456Z,15.58
2023-04-11T12:31:25.293Z,15.59
2023-04-11T12:33:55.720Z,15.64
2023-04-11T12:36:24.724Z,15.64
2023-04-11T12:38:55.132Z,15.63
2023-04-11T12:43:56.644Z,15.59
2023-04-11T12:46:26.813Z,15.58
2023-04-11T12:48:56.297Z,15.55
2023-04-11T12:51:25.461Z,15.57
2023-04-11T12:53:56.446Z,15.57
2023-04-11T12:56:27.012Z,15.62
2023-04-11T12:58:57.904Z,15.62
2023-04-11T13:01:27.670Z,15.64
2023-04-11T13:03:58.066Z,15.67
2023-04-11T13:06:28.237Z,15.69
2023-04-11T13:08:59.643Z,15.72
2023-04-11T13:11:28.969Z,15.73
2023-04-11T13:14:00.570Z,15.76
2023-04-11T13:16:34.635Z,15.80
2023-04-11T13:19:06.007Z,15.80
2023-04-11T13:21:43.702Z,15.80
2023-04-11T13:24:14.656Z,15.82
2023-04-11T13:26:48.981Z,15.88
2023-04-11T13:29:18.383Z,15.92
2023-04-11T13:31:53.225Z,15.92
2023-04-11T13:34:24.250Z,15.89
2023-04-11T13:36:56.073Z,15.86
2023-04-11T13:39:28.285Z,15.87
2023-04-11T13:42:02.985Z,15.89
2023-04-11T13:44:48.487Z,15.87
2023-04-11T13:47:40.755Z,15.82
2023-04-11T13:50:14.966Z,15.79
2023-04-11T13:52:51.072Z,15.76
2023-04-11T13:55:25.648Z,15.70
2023-04-11T13:58:00.965Z,15.68
2023-04-11T14:00:37.314Z,15.66
2023-04-11T14:03:09.327Z,15.66
2023-04-11T14:05:47.833Z,15.66
2023-04-11T14:08:19.371Z,15.69
2023-04-11T14:11:10.134Z,15.71
2023-04-11T14:13:46.873Z,15.75
2023-04-11T14:16:24.142Z,15.78
2023-04-11T14:18:55.683Z,15.81
2023-04-11T14:21:31.905Z,15.81
2023-04-11T14:24:02.082Z,15.79
2023-04-11T14:26:36.285Z,15.78
2023-04-11T14:29:12.404Z,15.79
2023-04-11T14:31:47.656Z,15.76
2023-04-11T14:34:20.653Z,15.70
2023-04-11T14:36:57.377Z,15.67
2023-04-11T14:39:28.621Z,15.64
2023-04-11T14:42:01.415Z,15.62
2023-04-11T14:44:35.376Z,15.59
2023-04-11T14:47:07.995Z,15.58
2023-04-11T14:49:39.121Z,15.57
2023-04-11T14:52:12.516Z,15.56
2023-04-11T14:54:46.033Z,15.55
2023-04-11T14:57:16.649Z,15.53
2023-04-11T14:59:49.942Z,15.52
2023-04-11T15:02:25.350Z,15.52
2023-04-11T15:04:56.456Z,15.52
2023-04-11T15:07:28.741Z,15.52
2023-04-11T15:09:59.922Z,15.51
2023-04-11T15:12:32.226Z,15.50
2023-04-11T15:15:08.726Z,15.48
2023-04-11T15:17:50.133Z,15.46
2023-04-11T15:20:27.827Z,15.43
2023-04-11T15:23:01.629Z,15.41
2023-04-11T15:25:33.958Z,15.39
2023-04-11T15:28:11.062Z,15.37
2023-04-11T15:30:50.787Z,15.35
2023-04-11T15:33:24.540Z,15.32
2023-04-11T15:46:59.269Z,15.14
2023-04-11T16:01:21.587Z,14.98
2023-04-11T16:04:50.660Z,14.93
2023-04-11T16:08:52.004Z,14.89
2023-04-11T16:15:58.598Z,14.80
2023-04-11T16:19:05.336Z,14.75
2023-04-11T16:22:29.448Z,14.72
2023-04-11T16:26:30.166Z,14.68
2023-04-11T16:32:59.694Z,14.61
2023-04-11T16:36:23.147Z,14.57
2023-04-11T16:46:54.454Z,14.47
2023-04-11T16:50:17.861Z,14.44
2023-04-11T16:53:23.851Z,14.40
2023-04-11T16:56:11.992Z,14.36
2023-04-11T16:58:59.716Z,14.33
2023-04-11T17:01:47.705Z,14.32
2023-04-11T17:11:43.377Z,14.24
2023-04-11T17:14:13.759Z,14.24
2023-04-11T17:22:40.021Z,14.20
2023-04-11T17:25:26.117Z,14.21
2023-04-11T17:29:08.787Z,14.20
2023-04-11T17:32:14.775Z,14.17
2023-04-11T17:38:45.476Z,14.14
2023-04-11T17:45:17.792Z,14.08
2023-04-11T17:52:43.270Z,14.05
2023-04-11T17:55:49.702Z,14.04
2023-04-11T18:02:38.993Z,13.95
2023-04-11T18:06:22.813Z,13.93
2023-04-11T18:09:10.762Z,13.92
2023-04-11T18:11:57.769Z,13.88
2023-04-11T18:19:06.155Z,13.84
2023-04-11T18:25:54.029Z,13.78
2023-04-11T18:28:22.744Z,13.76
2023-04-11T18:31:47.279Z,13.73
2023-04-11T18:38:36.753Z,13.69
2023-04-11T18:45:25.776Z,13.61
2023-04-11T18:52:35.050Z,13.60
2023-04-11T18:55:42.089Z,13.58
2023-04-11T18:58:49.791Z,13.57
2023-04-11T19:01:56.981Z,13.56
2023-04-11T19:09:04.184Z,13.54
2023-04-11T19:11:51.352Z,13.50
2023-04-11T19:18:37.182Z,13.47
2023-04-11T19:22:19.374Z,13.45
2023-04-11T19:25:43.592Z,13.44
2023-04-11T19:33:08.229Z,13.40
2023-04-11T19:36:52.116Z,13.39
2023-04-11T19:40:18.718Z,13.35
2023-04-11T19:43:24.455Z,13.33
2023-04-11T19:46:48.373Z,13.33
2023-04-11T19:50:12.710Z,13.31
2023-04-11T19:53:17.405Z,13.30
2023-04-11T19:56:59.697Z,13.29
2023-04-11T20:03:40.397Z,13.26
2023-04-11T20:07:04.975Z,13.25
2023-04-11T20:10:28.838Z,13.23
2023-04-11T20:13:52.688Z,13.20
2023-04-11T20:17:16.044Z,13.19
2023-04-11T20:20:58.786Z,13.19
2023-04-11T20:24:40.957Z,13.19
2023-04-11T20:27:28.573Z,13.18
2023-04-11T20:30:33.803Z,13.18
2023-04-11T20:40:46.697Z,13.16
2023-04-11T20:44:28.443Z,13.15
2023-04-11T20:58:23.179Z,13.10
2023-04-11T21:01:11.784Z,13.10
2023-04-11T21:04:19.040Z,13.08
2023-04-11T21:06:50.347Z,13.06
2023-04-11T21:13:22.410Z,13.01
2023-04-11T21:16:11.284Z,12.99
2023-04-11T21:23:35.590Z,12.93
2023-04-11T21:32:56.248Z,12.67
2023-04-11T21:36:21.855Z,12.59
2023-04-11T21:39:48.774Z,12.52
2023-04-11T21:46:37.529Z,12.33
2023-04-11T21:53:25.019Z,12.18
2023-04-11T21:57:07.803Z,12.13
2023-04-11T22:00:52.442Z,12.10
2023-04-11T22:07:24.832Z,12.05
2023-04-11T22:13:17.987Z,11.93
2023-04-11T22:17:01.061Z,11.88
2023-04-11T22:23:17.221Z,11.73
2023-04-11T22:27:36.452Z,11.69
2023-04-11T22:30:44.477Z,11.67
2023-04-11T22:36:56.546Z,11.59
2023-04-11T22:47:31.077Z,11.54
2023-04-11T22:51:12.626Z,11.54
2023-04-11T22:54:56.098Z,11.54
2023-04-11T22:58:02.309Z,11.52
2023-04-11T23:00:50.964Z,11.51
2023-04-11T23:10:28.547Z,11.45
2023-04-11T23:16:24.289Z,11.40
2023-04-11T23:23:30.137Z,11.38
2023-04-11T23:26:20.368Z,11.33
2023-04-11T23:29:44.192Z,11.29
2023-04-11T23:32:53.229Z,11.29
2023-04-11T23:47:23.772Z,11.21
2023-04-11T23:50:11.972Z,11.18
2023-04-11T23:53:35.035Z,11.16
